createdAt,value
2023-05-04T00:01:27.351Z,1021
2023-05-04T00:07:38.092Z,1021
2023-05-04T00:12:34.695Z,1021
2023-05-04T00:17:31.096Z,1021
2023-05-04T00:22:27.621Z,1021
2023-05-04T00:28:38.349Z,1021
2023-05-04T00:33:34.876Z,1021
2023-05-04T00:38:31.304Z,1021
2023-05-04T00:43:27.915Z,1020
2023-05-04T00:49:38.575Z,1020
2023-05-04T00:54:35.146Z,1020
2023-05-04T00:59:31.610Z,1020
2023-05-04T01:04:28.235Z,1020
2023-05-04T01:10:38.949Z,1020
2023-05-04T01:15:35.355Z,1020
2023-05-04T01:20:31.949Z,1020
2023-05-04T01:25:28.467Z,1020
2023-05-04T01:31:39.119Z,1020
2023-05-04T01:36:35.739Z,1020
2023-05-04T01:41:32.234Z,1020
2023-05-04T01:46:28.839Z,1020
2023-05-04T01:52:39.375Z,1020
2023-05-04T01:57:35.896Z,1020
2023-05-04T02:02:32.511Z,1020
2023-05-04T02:07:29.012Z,1020
2023-05-04T02:13:39.723Z,1020
2023-05-04T02:18:36.205Z,1020
2023-05-04T02:28:29.223Z,1020
2023-05-04T02:34:39.888Z,1020
2023-05-04T02:39:36.448Z,1020
2023-05-04T02:44:33.048Z,1020
2023-05-04T02:49:29.589Z,1020
2023-05-04T02:55:40.162Z,1020
2023-05-04T03:00:36.664Z,1020
2023-05-04T03:05:33.282Z,1020
2023-05-04T03:10:29.826Z,1020
2023-05-04T03:16:40.436Z,1020
2023-05-04T03:21:36.963Z,1020
2023-05-04T03:26:33.502Z,1020
2023-05-04T03:31:30.672Z,1020
2023-05-04T03:36:26.569Z,1020
2023-05-04T03:46:19.819Z,1020
2023-05-04T03:47:33.955Z,1020
2023-05-04T03:52:30.298Z,1020
2023-05-04T04:03:37.684Z,1020
2023-05-04T04:08:34.239Z,1020
2023-05-04T04:13:30.587Z,1020
2023-05-04T04:18:27.143Z,1020
2023-05-04T04:24:37.787Z,1020
2023-05-04T04:29:34.374Z,1020
2023-05-04T04:34:30.900Z,1020
2023-05-04T04:39:27.535Z,1020
2023-05-04T04:45:38.258Z,1020
2023-05-04T04:50:34.597Z,1020
2023-05-04T04:55:31.051Z,1020
2023-05-04T05:00:27.614Z,1020
2023-05-04T05:06:38.867Z,1020
2023-05-04T05:11:34.870Z,1020
2023-05-04T05:16:31.398Z,1020
2023-05-04T05:27:38.589Z,1020
2023-05-04T05:32:35.249Z,1020
2023-05-04T05:37:31.662Z,1020
2023-05-04T05:42:28.309Z,1020
2023-05-04T05:48:38.834Z,1020
2023-05-04T05:53:35.430Z,1020
2023-05-04T05:58:31.872Z,1020
2023-05-04T06:03:28.779Z,1020
2023-05-04T06:09:39.204Z,1020
2023-05-04T06:14:35.612Z,1020
2023-05-04T06:19:32.340Z,1020
2023-05-04T06:24:28.730Z,1020
2023-05-04T06:30:39.412Z,1020
2023-05-04T06:35:35.910Z,1020
2023-05-04T06:40:32.444Z,1020
2023-05-04T06:45:29.065Z,1020
2023-05-04T06:51:39.752Z,1020
2023-05-04T06:56:36.158Z,1020
2023-05-04T07:01:32.860Z,1020
2023-05-04T07:06:29.327Z,1020
2023-05-04T07:11:25.759Z,1020
2023-05-04T07:17:36.475Z,1020
2023-05-04T07:22:33.025Z,1019
2023-05-04T07:27:29.555Z,1020
2023-05-04T07:32:26.153Z,1020
2023-05-04T07:38:36.670Z,1020
2023-05-04T07:43:33.327Z,1019
2023-05-04T07:48:29.754Z,1019
2023-05-04T07:53:26.460Z,1019
2023-05-04T07:59:36.920Z,1019
2023-05-04T08:04:33.509Z,1019
2023-05-04T08:09:30.035Z,1019
2023-05-04T08:14:26.569Z,1019
2023-05-04T08:20:37.272Z,1019
2023-05-04T08:25:33.781Z,1019
2023-05-04T08:30:30.254Z,1019
2023-05-04T08:41:37.484Z,1019
2023-05-04T08:46:34.049Z,1019
2023-05-04T08:51:30.601Z,1019
2023-05-04T08:56:27.064Z,1019
2023-05-04T09:02:37.874Z,1019
2023-05-04T09:07:34.344Z,1019
2023-05-04T09:12:30.795Z,1019
2023-05-04T09:17:27.420Z,1019
2023-05-04T09:23:38.111Z,1019
2023-05-04T09:28:34.603Z,1019
2023-05-04T09:33:31.300Z,1019
2023-05-04T09:38:27.789Z,1019
2023-05-04T09:44:38.282Z,1019
2023-05-04T09:49:34.922Z,1019
2023-05-04T09:54:31.363Z,1019
2023-05-04T10:05:38.722Z,1018
2023-05-04T10:10:35.116Z,1018
2023-05-04T10:15:31.764Z,1018
2023-05-04T10:20:28.340Z,1018
2023-05-04T10:26:38.784Z,1018
2023-05-04T10:31:35.467Z,1018
2023-05-04T10:36:31.963Z,1018
2023-05-04T10:41:28.502Z,1018
2023-05-04T10:47:39.171Z,1018
2023-05-04T10:52:35.657Z,1018
2023-05-04T10:57:32.266Z,1018
2023-05-04T11:02:30.951Z,1018
2023-05-04T11:08:39.612Z,1017
2023-05-04T11:12:30.059Z,1017
2023-05-04T11:17:28.040Z,1017
2023-05-04T11:23:37.327Z,1017
2023-05-04T11:33:30.338Z,1017
2023-05-04T11:38:26.834Z,1017
2023-05-04T11:44:37.452Z,1017
2023-05-04T11:49:33.991Z,1017
2023-05-04T11:54:30.523Z,1017
2023-05-04T11:59:27.081Z,1017
2023-05-04T12:05:37.805Z,1017
2023-05-04T12:10:34.182Z,1016
2023-05-04T12:15:30.702Z,1016
2023-05-04T12:20:27.278Z,1016
2023-05-04T12:26:38.005Z,1016
2023-05-04T12:31:34.464Z,1016
2023-05-04T12:36:31.041Z,1016
2023-05-04T12:41:27.731Z,1016
2023-05-04T12:47:38.354Z,1016
2023-05-04T12:52:34.849Z,1016
2023-05-04T12:57:31.519Z,1016
2023-05-04T13:02:28.024Z,1016
2023-05-04T13:08:38.538Z,1016
2023-05-04T13:13:35.077Z,1016
2023-05-04T13:18:31.896Z,1016
2023-05-04T13:23:28.191Z,1016
2023-05-04T13:29:38.824Z,1016
2023-05-04T13:34:35.354Z,1016
2023-05-04T13:39:31.996Z,1015
2023-05-04T13:44:28.366Z,1015
2023-05-04T13:50:39.083Z,1015
2023-05-04T13:55:35.650Z,1015
2023-05-04T14:00:32.291Z,1015
2023-05-04T14:05:28.750Z,1015
2023-05-04T14:11:39.525Z,1015
2023-05-04T14:16:37.462Z,1015
2023-05-04T14:21:32.508Z,1015
2023-05-04T14:26:29.001Z,1015
2023-05-04T14:32:39.653Z,1015
2023-05-04T14:37:36.140Z,1015
2023-05-04T14:42:32.684Z,1014
2023-05-04T14:47:29.610Z,1014
2023-05-04T14:53:39.939Z,1014
2023-05-04T14:58:36.458Z,1014
2023-05-04T15:03:33.003Z,1014
2023-05-04T15:08:29.493Z,1014
2023-05-04T15:14:40.256Z,1014
2023-05-04T15:19:36.817Z,1014
2023-05-04T15:24:33.217Z,1014
2023-05-04T15:29:29.891Z,1014
2023-05-04T15:34:26.244Z,1014
2023-05-04T15:40:36.994Z,1014
2023-05-04T15:45:33.804Z,1014
2023-05-04T15:50:32.367Z,1014
2023-05-04T15:55:26.818Z,1014
2023-05-04T16:01:37.174Z,1014
2023-05-04T16:11:30.358Z,1014
2023-05-04T16:16:27.106Z,1014
2023-05-04T16:22:37.481Z,1014
2023-05-04T16:27:34.012Z,1014
2023-05-04T16:32:30.772Z,1014
2023-05-04T16:38:41.206Z,1014
2023-05-04T16:43:37.738Z,1014
2023-05-04T16:48:34.435Z,1014
2023-05-04T16:53:30.922Z,1013
2023-05-04T16:58:27.586Z,1013
2023-05-04T17:04:38.223Z,1014
2023-05-04T17:09:34.651Z,1014
2023-05-04T17:14:31.167Z,1014
2023-05-04T17:19:27.740Z,1014
2023-05-04T17:25:38.310Z,1014
2023-05-04T17:30:34.861Z,1014
2023-05-04T17:35:31.379Z,1014
2023-05-04T17:40:28.355Z,1014
2023-05-04T17:46:38.614Z,1014
2023-05-04T17:51:35.098Z,1014
2023-05-04T17:56:31.634Z,1014
2023-05-04T18:01:28.340Z,1014
2023-05-04T18:07:38.934Z,1014
2023-05-04T18:12:37.640Z,1014
2023-05-04T18:17:32.023Z,1014
2023-05-04T18:22:28.576Z,1014
2023-05-04T18:28:39.164Z,1014
2023-05-04T18:33:35.685Z,1014
2023-05-04T18:38:32.214Z,1014
2023-05-04T18:43:28.924Z,1014
2023-05-04T18:49:39.505Z,1014
2023-05-04T18:54:35.940Z,1014
2023-05-04T18:59:32.564Z,1014
2023-05-04T19:04:29.051Z,1014
2023-05-04T19:10:39.599Z,1014
2023-05-04T19:15:36.191Z,1014
2023-05-04T19:20:32.701Z,1014
2023-05-04T19:25:34.748Z,1014
2023-05-04T19:30:33.989Z,1014
2023-05-04T19:35:30.432Z,1014
2023-05-04T19:46:37.856Z,1014
2023-05-04T19:51:34.382Z,1014
2023-05-04T19:56:30.791Z,1015
2023-05-04T20:01:27.404Z,1015
2023-05-04T20:07:38.052Z,1014
2023-05-04T20:12:34.629Z,1014
2023-05-04T20:17:32.280Z,1014
2023-05-04T20:22:27.635Z,1015
2023-05-04T20:28:38.261Z,1014
2023-05-04T20:33:34.872Z,1014
2023-05-04T20:38:31.340Z,1014
2023-05-04T20:43:27.938Z,1014
2023-05-04T20:49:38.594Z,1014
2023-05-04T20:54:35.034Z,1014
2023-05-04T20:59:31.547Z,1014
2023-05-04T21:10:38.788Z,1014
2023-05-04T21:15:35.324Z,1014
2023-05-04T21:20:31.871Z,1014
2023-05-04T21:25:28.468Z,1014
2023-05-04T21:31:39.176Z,1014
2023-05-04T21:36:35.583Z,1014
2023-05-04T21:41:32.154Z,1014
2023-05-04T21:46:28.815Z,1014
2023-05-04T21:52:39.335Z,1014
2023-05-04T21:57:35.860Z,1014
2023-05-04T22:02:32.474Z,1014
2023-05-04T22:07:28.932Z,1014
2023-05-04T22:13:39.562Z,1014
2023-05-04T22:18:36.251Z,1014
2023-05-04T22:23:32.662Z,1014
2023-05-04T22:28:29.196Z,1014
2023-05-04T22:34:39.899Z,1014
2023-05-04T22:39:36.386Z,1014
2023-05-04T22:44:33.038Z,1014
2023-05-04T22:49:29.512Z,1014
2023-05-04T22:54:26.032Z,1014
2023-05-04T23:00:36.683Z,1014
2023-05-04T23:05:33.266Z,1014
2023-05-04T23:10:29.828Z,1014
2023-05-04T23:15:26.340Z,1014
2023-05-04T23:21:36.944Z,1014
2023-05-04T23:26:33.504Z,1014
2023-05-04T23:31:30.130Z,1014
2023-05-04T23:36:26.574Z,1014
2023-05-04T23:42:37.163Z,1014
2023-05-04T23:47:33.723Z,1014
2023-05-04T23:52:30.225Z,1014
2023-05-04T23:57:26.865Z,1014
